createdAt,value
2023-01-29T00:00:04.344Z,101421.32
2023-01-29T00:05:43.802Z,101432.98
2023-01-29T00:10:53.560Z,101423.71
2023-01-29T00:16:03.005Z,101419.65
2023-01-29T00:21:15.658Z,101422.85
2023-01-29T00:26:27.009Z,101414.41
2023-01-29T00:31:38.386Z,101404.92
2023-01-29T00:37:09.380Z,101401.77
2023-01-29T00:42:35.539Z,101393.22
2023-01-29T00:48:04.397Z,101387.88
2023-01-29T00:53:20.256Z,101374.46
2023-01-29T00:58:38.618Z,101370.48
2023-01-29T01:03:51.288Z,101356.70
2023-01-29T01:09:35.018Z,101354.70
2023-01-29T01:14:48.530Z,101355.93
2023-01-29T01:19:59.166Z,101344.16
2023-01-29T01:25:11.845Z,101344.36
2023-01-29T01:30:23.897Z,101355.22
2023-01-29T01:35:32.765Z,101351.70
2023-01-29T01:40:50.099Z,101351.70
2023-01-29T01:46:42.321Z,101338.35
2023-01-29T01:52:07.096Z,101334.91
2023-01-29T01:57:29.879Z,101321.23
2023-01-29T02:03:00.075Z,101317.60
2023-01-29T02:08:29.380Z,101326.38
2023-01-29T02:13:48.257Z,101330.36
2023-01-29T02:19:25.326Z,101336.48
2023-01-29T02:25:20.124Z,101343.91
2023-01-29T02:31:12.682Z,101336.05
2023-01-29T02:36:49.493Z,101340.45
2023-01-29T02:42:10.319Z,101343.48
2023-01-29T02:47:28.816Z,101341.24
2023-01-29T02:52:51.240Z,101338.82
2023-01-29T02:58:14.206Z,101334.65
2023-01-29T03:03:35.479Z,101329.55
2023-01-29T03:08:59.949Z,101335.69
2023-01-29T03:14:17.157Z,101331.41
2023-01-29T03:19:44.647Z,101323.16
2023-01-29T03:25:29.722Z,101323.70
2023-01-29T03:31:03.667Z,101317.66
2023-01-29T03:36:31.895Z,101328.98
2023-01-29T03:41:50.550Z,101329.27
2023-01-29T03:47:07.281Z,101321.69
2023-01-29T03:52:29.572Z,101318.70
2023-01-29T03:58:00.996Z,101309.27
2023-01-29T04:03:18.671Z,101307.92
2023-01-29T04:08:38.714Z,101300.38
2023-01-29T04:13:51.268Z,101303.28
2023-01-29T04:19:02.953Z,101297.56
2023-01-29T04:24:31.622Z,101300.11
2023-01-29T04:29:57.772Z,101289.50
2023-01-29T04:35:31.493Z,101282.57
2023-01-29T04:40:52.201Z,101277.48
2023-01-29T04:46:13.811Z,101263.64
2023-01-29T04:51:26.800Z,101257.34
2023-01-29T04:56:40.869Z,101256.27
2023-01-29T05:01:50.790Z,101253.02
2023-01-29T05:06:58.468Z,101251.26
2023-01-29T05:12:08.227Z,101249.66
2023-01-29T05:17:19.901Z,101241.02
2023-01-29T05:22:28.659Z,101240.44
2023-01-29T05:27:56.038Z,101236.70
2023-01-29T05:33:03.572Z,101229.61
2023-01-29T05:38:11.107Z,101230.77
2023-01-29T05:43:20.093Z,101232.96
2023-01-29T05:48:28.873Z,101238.17
2023-01-29T05:53:36.085Z,101225.11
2023-01-29T05:58:43.139Z,101221.88
2023-01-29T06:03:50.426Z,101227.89
2023-01-29T06:08:58.398Z,101228.02
2023-01-29T06:14:05.373Z,101230.42
2023-01-29T06:19:12.399Z,101232.17
2023-01-29T06:24:19.432Z,101223.26
2023-01-29T06:29:26.457Z,101224.42
2023-01-29T06:34:33.389Z,101230.52
2023-01-29T06:39:40.436Z,101240.46
2023-01-29T06:44:47.484Z,101246.19
2023-01-29T06:49:56.222Z,101256.54
2023-01-29T06:55:03.924Z,101265.02
2023-01-29T07:00:12.985Z,101276.81
2023-01-29T07:05:20.418Z,101277.74
2023-01-29T07:10:27.436Z,101280.27
2023-01-29T07:15:37.324Z,101283.92
2023-01-29T07:20:45.301Z,101291.05
2023-01-29T07:25:52.814Z,101294.96
2023-01-29T07:31:00.596Z,101302.48
2023-01-29T07:36:13.502Z,101288.47
2023-01-29T07:41:20.796Z,101295.76
2023-01-29T07:46:27.745Z,101288.00
2023-01-29T07:51:35.107Z,101289.05
2023-01-29T07:56:42.455Z,101300.87
2023-01-29T08:01:49.518Z,101274.52
2023-01-29T08:06:56.551Z,101265.73
2023-01-29T08:12:03.733Z,101274.80
2023-01-29T08:17:10.776Z,101265.58
2023-01-29T08:22:17.661Z,101268.45
2023-01-29T08:27:24.727Z,101259.34
2023-01-29T08:32:31.715Z,101249.29
2023-01-29T08:37:38.870Z,101236.33
2023-01-29T08:43:18.851Z,101225.40
2023-01-29T08:48:50.805Z,101212.02
2023-01-29T08:53:57.966Z,101210.33
2023-01-29T08:59:05.249Z,101208.40
2023-01-29T09:04:12.315Z,101219.38
2023-01-29T09:09:19.525Z,101218.59
2023-01-29T09:14:27.681Z,101219.59
2023-01-29T09:19:37.164Z,101227.71
2023-01-29T09:24:44.081Z,101221.73
2023-01-29T09:29:51.259Z,101214.98
2023-01-29T09:34:58.252Z,101214.28
2023-01-29T09:40:05.657Z,101212.02
2023-01-29T09:45:20.613Z,101208.19
2023-01-29T09:50:32.926Z,101194.34
2023-01-29T09:55:40.644Z,101180.58
2023-01-29T10:00:58.458Z,101174.98
2023-01-29T10:06:27.368Z,101166.27
2023-01-29T10:11:47.238Z,101159.48
2023-01-29T10:17:12.980Z,101148.09
2023-01-29T10:22:49.885Z,101140.47
2023-01-29T10:27:59.577Z,101127.26
2023-01-29T10:33:07.682Z,101120.44
2023-01-29T10:38:31.032Z,101121.93
2023-01-29T10:43:51.560Z,101122.51
2023-01-29T10:49:09.702Z,101116.40
2023-01-29T10:54:31.208Z,101117.47
2023-01-29T10:59:52.898Z,101105.87
2023-01-29T11:05:02.540Z,101093.42
2023-01-29T11:10:16.021Z,101090.20
2023-01-29T11:15:29.631Z,101081.41
2023-01-29T11:20:36.616Z,101074.76
2023-01-29T11:25:55.607Z,101075.70
2023-01-29T11:31:03.210Z,101075.88
2023-01-29T11:36:23.701Z,101063.80
2023-01-29T11:41:30.726Z,101056.84
2023-01-29T11:46:40.759Z,101041.79
2023-01-29T11:51:56.494Z,101034.05
2023-01-29T11:57:04.349Z,101025.23
2023-01-29T12:02:26.627Z,101005.06
2023-01-29T12:07:35.769Z,101000.45
2023-01-29T12:12:45.834Z,100996.63
2023-01-29T12:18:00.830Z,100987.20
2023-01-29T12:23:22.854Z,100964.09
2023-01-29T12:28:50.014Z,100956.05
2023-01-29T12:34:06.357Z,100953.62
2023-01-29T12:39:18.083Z,100947.57
2023-01-29T12:44:32.145Z,100944.80
2023-01-29T12:49:42.671Z,100942.13
2023-01-29T12:54:56.440Z,100938.17
2023-01-29T13:00:09.170Z,100927.23
2023-01-29T13:05:24.494Z,100909.44
2023-01-29T13:10:45.783Z,100899.97
2023-01-29T13:16:01.314Z,100902.27
2023-01-29T13:21:21.640Z,100915.41
2023-01-29T13:26:38.879Z,100900.63
2023-01-29T13:32:05.899Z,100899.67
2023-01-29T13:37:31.421Z,100898.63
2023-01-29T13:42:59.887Z,100897.30
2023-01-29T13:48:41.103Z,100893.11
2023-01-29T13:54:24.043Z,100884.40
2023-01-29T14:00:17.283Z,100879.87
2023-01-29T14:06:24.366Z,100876.51
2023-01-29T14:11:59.408Z,100877.04
2023-01-29T14:17:30.543Z,100866.33
2023-01-29T14:22:59.615Z,100865.63
2023-01-29T14:28:27.032Z,100864.78
2023-01-29T14:33:44.751Z,100868.48
2023-01-29T14:39:15.194Z,100876.96
2023-01-29T14:45:30.563Z,100872.95
2023-01-29T14:50:56.407Z,100866.73
2023-01-29T14:56:17.864Z,100865.60
2023-01-29T15:01:37.071Z,100864.10
2023-01-29T15:06:50.330Z,100865.81
2023-01-29T15:12:25.370Z,100870.70
2023-01-29T15:17:49.278Z,100868.96
2023-01-29T15:23:12.914Z,100867.86
2023-01-29T15:28:43.516Z,100864.56
2023-01-29T15:34:12.789Z,100867.52
2023-01-29T15:39:30.479Z,100863.45
2023-01-29T15:44:46.541Z,100867.52
2023-01-29T15:49:59.045Z,100866.70
2023-01-29T15:55:11.187Z,100865.86
2023-01-29T16:00:32.017Z,100866.85
2023-01-29T16:05:44.314Z,100871.71
2023-01-29T16:10:57.348Z,100866.04
2023-01-29T16:16:25.426Z,100859.66
2023-01-29T16:21:38.166Z,100856.92
2023-01-29T16:26:55.120Z,100857.52
2023-01-29T16:32:06.655Z,100846.84
2023-01-29T16:37:28.729Z,100850.44
2023-01-29T16:42:44.971Z,100843.67
2023-01-29T16:48:26.436Z,100848.70
2023-01-29T16:54:15.108Z,100854.58
2023-01-29T16:59:35.949Z,100841.20
2023-01-29T17:04:50.160Z,100829.48
2023-01-29T17:10:05.581Z,100824.50
2023-01-29T17:21:33.240Z,100818.31
2023-01-29T17:26:42.292Z,100814.27
2023-01-29T17:31:50.323Z,100812.71
2023-01-29T17:37:24.431Z,100804.88
2023-01-29T17:42:42.577Z,100808.41
2023-01-29T17:48:00.772Z,100808.91
2023-01-29T17:53:12.524Z,100798.10
2023-01-29T17:58:41.282Z,100786.67
2023-01-29T18:04:06.743Z,100776.86
2023-01-29T18:09:45.924Z,100770.71
2023-01-29T18:15:11.877Z,100773.38
2023-01-29T18:20:29.416Z,100768.33
2023-01-29T18:26:18.849Z,100758.21
2023-01-29T18:31:40.161Z,100749.47
2023-01-29T18:37:13.106Z,100744.75
2023-01-29T18:42:28.830Z,100740.90
2023-01-29T18:53:32.876Z,100723.98
2023-01-29T18:58:51.997Z,100718.44
2023-01-29T19:04:16.055Z,100721.50
2023-01-29T19:09:27.254Z,100714.44
2023-01-29T19:14:35.927Z,100709.41
2023-01-29T19:19:44.531Z,100709.75
2023-01-29T19:24:52.067Z,100708.26
2023-01-29T19:29:59.785Z,100705.79
2023-01-29T19:35:07.571Z,100698.52
2023-01-29T19:40:15.000Z,100694.65
2023-01-29T19:45:49.099Z,100688.70
2023-01-29T19:50:57.017Z,100675.42
2023-01-29T19:56:06.433Z,100670.60
2023-01-29T20:01:31.242Z,100658.71
2023-01-29T20:06:49.047Z,100653.34
2023-01-29T20:12:00.955Z,100652.99
2023-01-29T20:17:12.995Z,100645.57
2023-01-29T20:22:34.363Z,100645.94
2023-01-29T20:27:50.204Z,100641.27
2023-01-29T20:33:00.788Z,100640.01
2023-01-29T20:38:21.539Z,100632.86
2023-01-29T20:43:31.839Z,100632.56
2023-01-29T20:48:42.560Z,100624.82
2023-01-29T20:53:57.198Z,100621.23
2023-01-29T20:59:08.630Z,100618.45
2023-01-29T21:04:22.488Z,100617.35
2023-01-29T21:09:32.189Z,100613.45
2023-01-29T21:15:00.591Z,100605.79
2023-01-29T21:20:17.681Z,100597.11
2023-01-29T21:25:33.740Z,100595.30
2023-01-29T21:30:54.934Z,100593.62
2023-01-29T21:36:13.887Z,100587.77
2023-01-29T21:41:53.439Z,100585.02
2023-01-29T21:47:15.568Z,100582.65
2023-01-29T21:52:23.948Z,100576.70
2023-01-29T21:57:45.277Z,100565.33
2023-01-29T22:02:59.010Z,100549.27
2023-01-29T22:08:07.357Z,100536.05
2023-01-29T22:13:20.841Z,100532.75
2023-01-29T22:18:28.963Z,100524.59
2023-01-29T22:23:40.014Z,100519.39
2023-01-29T22:28:59.371Z,100508.25
2023-01-29T22:34:19.592Z,100501.48
2023-01-29T22:39:27.608Z,100492.55
2023-01-29T22:44:35.285Z,100480.81
2023-01-29T22:49:45.746Z,100460.01
2023-01-29T22:54:59.343Z,100447.49
2023-01-29T23:00:17.695Z,100444.06
2023-01-29T23:05:33.527Z,100429.16
2023-01-29T23:10:45.482Z,100407.66
2023-01-29T23:16:04.434Z,100393.57
2023-01-29T23:21:16.297Z,100389.09
2023-01-29T23:26:42.491Z,100373.98
2023-01-29T23:31:51.772Z,100361.75
2023-01-29T23:37:06.166Z,100354.77
2023-01-29T23:42:15.804Z,100346.74
2023-01-29T23:47:23.484Z,100327.25
2023-01-29T23:52:31.316Z,100314.20
2023-01-29T23:57:42.289Z,100297.85
